Atkinson, Maine
Current Conditions -  °F | °C
As of 5:53 AM on Wednesday 26 Nov 2014 (Local Time) from KBGR Reporting Station
Broken Clouds Broken Clouds  
Wind Chill: 35°   Ceiling: 20000
Heat Index: 39°   Visibility: 10mi
Dew Point: 27°   Wind: 6mph
Humidity: 62%   Direction: 300°WNW
Pressure: 30.18"   Gusts: NA
Location:  45.2129°N, 69.1615°W
Report Text: KBGR 261053Z 30005KT 10SM BKN200 04/M03 A3018 RMK AO2 SLP219 T00391028
Loading
Personal Weather Stations






























Interactive Weather Map New forecast layout! Learn more

10-Day Weather Forecast

Advertisements
Track Severe Weather on mobile